Current | Forecast
Updated: 12:00 AM JST on January 18, 2018
Observed at Chitose AB, Japan
Temperature 30°F
Windchill 21°F
Humidity 75%
Dew Point 23°F
Wind SE at 10 mph
Pressure 30.04 in (Steady)
Conditions Mostly Cloudy
Visibility 6.2 miles
UV 0 out of 16
Clouds (FEW) : 1500 ft
Mostly Cloudy (BKN) : 3500 ft
Yesterday's Maximum 34°F
Yesterday's Minimum 25°F approx.
Yesterday's Heating Degree Days 36 approx.
Sunrise7:03 AM JST
Sunset4:29 PM JST
Moon Rise7:33 AM JST
Moon Set5:35 PM JST
Moon PhaseMoon Phase
New Moon
Raw METARMETAR RJCC 171500Z 13009KT 9999 FEW015 BKN035 M01/M05 Q1017 RMK 1ST015 7CU035 A3003


Monday
. High: 66° F.
Tuesday
. High: 64° F.
Wednesday
. High: 51° F.
Thursday
. High: 53° F.
Friday
. High: 57° F.
Saturday
. High: 59° F.
Sunday
. High: 46° F.
Monday
. High: 46° F.

Units: English | Metric

Find the Weather for any City, State or Zipcode, or Country:

U.S. State List | Severe Weather | Tropical Storms | Ski Conditions
United States | Canada | Central America | South America | Asia | Europe | Australia | Africa | Islands

Weather Underground

© Copyright 2018
The Weather Company, LLC